createdAt,value
2022-12-08T00:02:20.270Z,21.25
2022-12-08T00:05:41.406Z,23.30
2022-12-08T00:09:02.196Z,21.30
2022-12-08T00:12:06.028Z,22.57
2022-12-08T00:15:08.487Z,22.73
2022-12-08T00:18:10.777Z,22.27
2022-12-08T00:21:13.061Z,22.35
2022-12-08T00:24:15.416Z,22.83
2022-12-08T00:27:18.191Z,21.33
2022-12-08T00:30:20.889Z,22.43
2022-12-08T00:33:23.267Z,22.48
2022-12-08T00:36:25.641Z,20.42
2022-12-08T00:39:27.990Z,21.92
2022-12-08T00:42:30.293Z,22.40
2022-12-08T00:45:32.611Z,21.97
2022-12-08T00:48:35.104Z,21.20
2022-12-08T00:51:37.705Z,20.33
2022-12-08T00:54:39.970Z,16.35
2022-12-08T00:57:42.228Z,21.80
2022-12-08T01:00:44.654Z,20.37
2022-12-08T01:03:47.035Z,21.08
2022-12-08T01:06:49.603Z,20.13
2022-12-08T01:09:52.886Z,21.77
2022-12-08T01:12:55.142Z,21.50
2022-12-08T01:15:57.402Z,20.60
2022-12-08T01:19:01.161Z,20.58
2022-12-08T01:22:03.575Z,20.92
2022-12-08T01:25:06.815Z,20.25
2022-12-08T01:28:09.086Z,20.67
2022-12-08T01:31:21.430Z,21.27
2022-12-08T01:34:23.792Z,20.35
2022-12-08T01:37:26.086Z,19.40
2022-12-08T01:40:28.461Z,20.05
2022-12-08T01:44:09.482Z,20.07
2022-12-08T01:47:12.230Z,19.30
2022-12-08T01:50:16.305Z,19.83
2022-12-08T01:53:30.634Z,19.90
2022-12-08T01:56:38.033Z,18.70
2022-12-08T01:59:45.361Z,18.43
2022-12-08T02:02:56.960Z,16.87
2022-12-08T02:05:59.216Z,17.17
2022-12-08T02:09:02.051Z,17.02
2022-12-08T02:12:04.704Z,17.45
2022-12-08T02:15:07.578Z,17.67
2022-12-08T02:18:26.009Z,16.63
2022-12-08T02:21:47.046Z,15.50
2022-12-08T02:25:07.717Z,15.93
2022-12-08T02:28:26.906Z,18.38
2022-12-08T02:31:44.417Z,15.43
2022-12-08T02:35:08.713Z,16.83
2022-12-08T02:38:33.590Z,16.58
2022-12-08T02:41:49.580Z,16.02
2022-12-08T02:44:58.156Z,16.58
2022-12-08T02:48:00.758Z,16.93
2022-12-08T02:51:03.549Z,15.80
2022-12-08T02:54:06.523Z,16.63
2022-12-08T02:57:23.941Z,16.95
2022-12-08T03:00:30.116Z,15.13
2022-12-08T03:03:41.619Z,15.93
2022-12-08T03:06:52.983Z,17.60
2022-12-08T03:10:05.290Z,16.40
2022-12-08T03:13:16.919Z,16.85
2022-12-08T03:16:23.649Z,15.43
2022-12-08T03:19:33.280Z,15.73
2022-12-08T03:22:35.859Z,16.17
2022-12-08T03:25:47.093Z,14.93
2022-12-08T03:28:49.399Z,16.05
2022-12-08T03:31:58.118Z,16.10
2022-12-08T03:35:03.575Z,16.77
2022-12-08T03:38:10.795Z,16.88
2022-12-08T03:41:18.788Z,16.70
2022-12-08T03:44:21.083Z,16.50
2022-12-08T03:47:23.492Z,16.63
2022-12-08T03:50:25.962Z,16.87
2022-12-08T03:53:28.346Z,15.75
2022-12-08T03:56:33.337Z,18.27
2022-12-08T03:59:35.637Z,17.23
2022-12-08T04:02:37.983Z,17.13
2022-12-08T04:05:40.273Z,17.00
2022-12-08T04:08:42.627Z,16.95
2022-12-08T04:11:44.920Z,17.75
2022-12-08T04:14:47.797Z,16.73
2022-12-08T04:17:50.103Z,16.83
2022-12-08T04:20:53.334Z,15.87
2022-12-08T04:24:00.814Z,17.17
2022-12-08T04:27:03.815Z,18.05
2022-12-08T04:30:07.028Z,15.07
2022-12-08T04:33:09.698Z,16.38
2022-12-08T04:36:12.012Z,17.23
2022-12-08T04:39:14.399Z,15.43
2022-12-08T04:42:16.667Z,17.10
2022-12-08T04:45:19.237Z,17.20
2022-12-08T04:48:21.551Z,17.70
2022-12-08T04:51:23.908Z,15.43
2022-12-08T04:54:27.143Z,15.93
2022-12-08T04:57:29.560Z,17.20
2022-12-08T05:00:31.800Z,16.42
2022-12-08T05:03:34.518Z,18.02
2022-12-08T05:06:36.778Z,16.23
2022-12-08T05:09:39.219Z,16.90
2022-12-08T05:12:41.585Z,17.67
2022-12-08T05:15:44.128Z,17.27
2022-12-08T05:18:46.525Z,17.05
2022-12-08T05:21:48.926Z,17.00
2022-12-08T05:24:51.171Z,18.45
2022-12-08T05:28:06.152Z,24.58
2022-12-08T05:31:16.941Z,18.27
2022-12-08T05:34:19.355Z,17.48
2022-12-08T05:37:21.647Z,17.73
2022-12-08T05:40:23.907Z,17.65
2022-12-08T05:43:27.136Z,17.48
2022-12-08T05:46:29.673Z,16.95
2022-12-08T05:49:32.095Z,16.05
2022-12-08T05:52:34.446Z,15.67
2022-12-08T05:55:37.923Z,15.80
2022-12-08T05:58:40.305Z,15.30
2022-12-08T06:01:43.012Z,15.20
2022-12-08T06:04:45.527Z,15.68
2022-12-08T06:07:47.814Z,15.47
2022-12-08T06:10:50.301Z,16.58
2022-12-08T06:13:53.106Z,16.27
2022-12-08T06:16:55.512Z,15.90
2022-12-08T06:19:57.858Z,16.35
2022-12-08T06:23:00.271Z,16.30
2022-12-08T06:26:07.832Z,16.35
2022-12-08T06:29:10.510Z,16.63
2022-12-08T06:32:12.983Z,16.15
2022-12-08T06:35:15.387Z,16.23
2022-12-08T06:38:17.720Z,14.97
2022-12-08T06:41:20.103Z,15.50
2022-12-08T06:44:22.534Z,15.63
2022-12-08T06:47:26.422Z,18.52
2022-12-08T06:50:28.985Z,15.48
2022-12-08T06:53:31.271Z,16.50
2022-12-08T06:56:33.563Z,15.85
2022-12-08T06:59:35.793Z,15.15
2022-12-08T07:02:38.963Z,15.30
2022-12-08T07:05:41.897Z,15.05
2022-12-08T07:08:44.346Z,16.60
2022-12-08T07:11:46.714Z,16.50
2022-12-08T07:14:48.971Z,18.05
2022-12-08T07:17:56.293Z,16.45
2022-12-08T07:21:06.146Z,15.68
2022-12-08T07:24:08.660Z,17.10
2022-12-08T07:27:10.921Z,18.92
2022-12-08T07:30:13.918Z,21.45
2022-12-08T07:33:16.193Z,22.02
2022-12-08T07:36:18.856Z,23.65
2022-12-08T07:39:21.246Z,22.47
2022-12-08T07:42:23.496Z,20.15
2022-12-08T07:45:31.449Z,22.67
2022-12-08T07:48:34.457Z,20.77
2022-12-08T07:51:36.726Z,20.58
2022-12-08T07:54:39.198Z,21.20
2022-12-08T07:57:42.763Z,18.67
2022-12-08T08:00:45.120Z,17.17
2022-12-08T08:03:47.517Z,15.38
2022-12-08T08:06:50.043Z,17.35
2022-12-08T08:09:52.301Z,19.43
2022-12-08T08:12:54.927Z,22.00
2022-12-08T08:16:04.398Z,19.67
2022-12-08T08:19:06.795Z,21.27
2022-12-08T08:22:09.208Z,21.77
2022-12-08T08:25:11.499Z,20.50
2022-12-08T08:28:13.779Z,21.48
2022-12-08T08:31:16.576Z,19.65
2022-12-08T08:34:18.912Z,18.13
2022-12-08T08:37:21.199Z,17.70
2022-12-08T08:40:23.767Z,17.53
2022-12-08T08:43:32.947Z,19.42
2022-12-08T08:46:38.636Z,15.15
2022-12-08T08:49:41.144Z,16.08
2022-12-08T08:52:43.417Z,16.05
2022-12-08T08:55:45.684Z,15.17
2022-12-08T08:58:49.650Z,15.57
2022-12-08T09:01:52.070Z,18.50
2022-12-08T09:04:54.491Z,18.40
2022-12-08T09:07:56.819Z,17.90
2022-12-08T09:10:59.117Z,16.10
2022-12-08T09:14:01.488Z,17.60
2022-12-08T09:17:04.100Z,18.67
2022-12-08T09:20:07.723Z,19.10
2022-12-08T09:23:13.006Z,18.95
2022-12-08T09:26:15.464Z,19.87
2022-12-08T09:29:17.886Z,16.83
2022-12-08T09:32:20.385Z,16.50
2022-12-08T09:35:22.728Z,17.75
2022-12-08T09:38:25.005Z,17.63
2022-12-08T09:41:44.892Z,12.00
2022-12-08T09:44:57.344Z,11.10
2022-12-08T09:48:20.221Z,10.30
2022-12-08T09:51:27.910Z,10.90
2022-12-08T09:54:39.206Z,13.93
2022-12-08T09:57:41.622Z,17.87
2022-12-08T10:00:44.037Z,18.10
2022-12-08T10:04:06.723Z,19.80
2022-12-08T10:07:27.676Z,18.13
2022-12-08T10:10:38.750Z,16.27
2022-12-08T10:14:02.732Z,15.33
2022-12-08T10:17:14.896Z,14.23
2022-12-08T10:20:21.159Z,17.27
2022-12-08T10:23:26.710Z,17.92
2022-12-08T10:26:32.802Z,15.73
2022-12-08T10:29:35.064Z,13.20
2022-12-08T10:32:37.316Z,13.95
2022-12-08T10:36:00.616Z,14.07
2022-12-08T10:39:02.913Z,12.43
2022-12-08T10:42:09.915Z,12.00
2022-12-08T10:45:18.111Z,11.47
2022-12-08T10:48:23.118Z,9.38
2022-12-08T10:51:28.607Z,9.70
2022-12-08T10:54:37.404Z,10.38
2022-12-08T10:57:39.683Z,10.10
2022-12-08T11:00:42.033Z,10.37
2022-12-08T11:03:51.545Z,11.60
2022-12-08T11:06:53.879Z,10.98
2022-12-08T11:09:58.316Z,10.18
2022-12-08T11:13:02.613Z,10.52
2022-12-08T11:16:06.256Z,11.00
2022-12-08T11:19:15.002Z,10.55
2022-12-08T11:22:29.338Z,10.90
2022-12-08T11:25:31.539Z,9.95
2022-12-08T11:28:33.891Z,11.43
2022-12-08T11:32:03.035Z,11.93
2022-12-08T11:35:07.029Z,11.70
2022-12-08T11:38:21.919Z,10.45
2022-12-08T11:41:29.032Z,10.85
2022-12-08T11:44:36.075Z,10.80
2022-12-08T11:47:55.830Z,10.33
2022-12-08T11:51:06.237Z,10.50
2022-12-08T11:54:31.198Z,11.63
2022-12-08T11:57:33.503Z,10.65
2022-12-08T12:00:35.873Z,12.75
2022-12-08T12:03:45.012Z,12.70
2022-12-08T12:06:55.806Z,11.13
2022-12-08T12:10:20.937Z,10.20
2022-12-08T12:13:32.098Z,12.35
2022-12-08T12:16:37.298Z,12.18
2022-12-08T12:19:40.214Z,12.10
2022-12-08T12:22:44.833Z,10.45
2022-12-08T12:26:02.883Z,11.00
2022-12-08T12:29:16.846Z,11.25
2022-12-08T12:32:19.268Z,9.55
2022-12-08T12:35:27.817Z,11.97
2022-12-08T12:38:55.965Z,10.05
2022-12-08T12:42:05.649Z,10.18
2022-12-08T12:45:32.502Z,9.93
2022-12-08T12:48:34.804Z,10.32
2022-12-08T12:51:45.024Z,9.27
2022-12-08T12:54:50.189Z,8.93
2022-12-08T12:57:58.458Z,8.63
2022-12-08T13:01:12.955Z,9.48
2022-12-08T13:04:16.341Z,8.57
2022-12-08T13:07:23.731Z,8.57
2022-12-08T13:10:29.193Z,8.55
2022-12-08T13:13:31.656Z,8.73
2022-12-08T13:16:40.362Z,7.90
2022-12-08T13:19:47.533Z,9.20
2022-12-08T13:22:53.707Z,8.63
2022-12-08T13:26:23.549Z,8.88
2022-12-08T13:29:26.534Z,10.60
2022-12-08T13:32:29.334Z,9.90
2022-12-08T13:35:36.840Z,10.90
2022-12-08T13:38:39.422Z,12.33
2022-12-08T13:41:44.923Z,12.63
2022-12-08T13:45:59.217Z,12.13
2022-12-08T13:50:42.713Z,12.45
2022-12-08T13:59:07.158Z,11.02
2022-12-08T14:02:39.530Z,12.00
2022-12-08T14:09:12.155Z,12.48
2022-12-08T14:12:21.781Z,12.30
2022-12-08T14:15:25.612Z,11.18
2022-12-08T14:18:31.859Z,12.07
2022-12-08T14:21:36.224Z,11.38
2022-12-08T14:24:40.018Z,10.93
2022-12-08T14:27:42.931Z,10.57
2022-12-08T14:30:45.332Z,10.77
2022-12-08T14:33:51.788Z,10.05
2022-12-08T14:36:58.160Z,11.15
2022-12-08T14:40:06.786Z,11.85
2022-12-08T14:43:09.256Z,11.70
2022-12-08T14:46:22.695Z,12.63
2022-12-08T14:49:51.748Z,12.30
2022-12-08T14:52:54.031Z,11.95
2022-12-08T14:55:56.354Z,11.25
2022-12-08T14:59:03.303Z,11.80
2022-12-08T15:03:16.958Z,12.68
2022-12-08T15:06:22.756Z,12.05
2022-12-08T15:09:32.806Z,12.18
2022-12-08T15:12:35.144Z,13.02
2022-12-08T15:15:51.089Z,12.57
2022-12-08T15:19:02.791Z,13.90
2022-12-08T15:22:14.096Z,13.57
2022-12-08T15:25:16.431Z,13.18
2022-12-08T15:28:24.040Z,13.32
2022-12-08T15:31:28.923Z,14.13
2022-12-08T15:34:31.729Z,13.65
2022-12-08T15:37:33.993Z,13.50
2022-12-08T15:40:36.244Z,14.32
2022-12-08T15:43:38.511Z,14.52
2022-12-08T15:46:40.801Z,13.67
2022-12-08T15:49:43.363Z,13.88
2022-12-08T15:52:45.726Z,13.68
2022-12-08T15:56:10.876Z,12.80
2022-12-08T15:59:15.712Z,13.93
2022-12-08T16:02:22.511Z,13.77
2022-12-08T16:05:44.295Z,13.93
2022-12-08T16:08:56.095Z,13.23
2022-12-08T16:13:48.168Z,13.63
2022-12-08T16:16:19.677Z,14.15
2022-12-08T16:19:21.985Z,13.70
2022-12-08T16:26:17.141Z,14.45
2022-12-08T16:29:18.524Z,13.95
2022-12-08T16:32:20.926Z,12.90
2022-12-08T16:35:23.206Z,11.87
2022-12-08T16:38:25.464Z,11.57
2022-12-08T16:41:46.376Z,11.20
2022-12-08T16:44:48.651Z,11.40
2022-12-08T16:47:56.465Z,12.10
2022-12-08T16:50:58.799Z,12.63
2022-12-08T16:54:01.120Z,12.00
2022-12-08T16:57:03.374Z,12.38
2022-12-08T17:00:07.702Z,12.32
2022-12-08T17:03:11.810Z,13.68
2022-12-08T17:06:18.077Z,12.13
2022-12-08T17:09:20.466Z,12.70
2022-12-08T17:12:22.769Z,13.18
2022-12-08T17:15:25.835Z,28.08
2022-12-08T17:18:28.124Z,28.90
2022-12-08T17:21:30.499Z,22.87
2022-12-08T17:24:32.771Z,14.73
2022-12-08T17:27:36.112Z,20.83
2022-12-08T17:30:38.771Z,17.58
2022-12-08T17:33:41.286Z,16.90
2022-12-08T17:36:43.593Z,14.10
2022-12-08T17:39:45.971Z,13.20
2022-12-08T17:42:48.249Z,13.80
2022-12-08T17:45:50.560Z,12.98
2022-12-08T17:48:53.619Z,13.18
2022-12-08T17:51:58.679Z,12.00
2022-12-08T17:55:00.960Z,12.80
2022-12-08T17:58:04.424Z,12.25
2022-12-08T18:01:10.827Z,12.10
2022-12-08T18:04:13.575Z,11.80
2022-12-08T18:07:18.031Z,11.93
2022-12-08T18:10:20.547Z,11.48
2022-12-08T18:13:22.780Z,12.27
2022-12-08T18:16:26.662Z,13.23
2022-12-08T18:19:29.006Z,11.32
2022-12-08T18:22:31.226Z,11.03
2022-12-08T18:25:33.478Z,10.68
2022-12-08T18:28:36.720Z,9.75
2022-12-08T18:31:39.038Z,9.07
2022-12-08T18:34:41.462Z,9.68
2022-12-08T18:37:43.798Z,8.10
2022-12-08T18:40:46.107Z,9.35
2022-12-08T18:43:48.426Z,10.15
2022-12-08T18:46:51.005Z,10.32
2022-12-08T18:49:53.369Z,9.68
2022-12-08T18:52:55.641Z,10.23
2022-12-08T18:55:57.895Z,11.35
2022-12-08T18:59:03.925Z,62.80
2022-12-08T19:02:06.619Z,29.42
2022-12-08T19:05:10.613Z,33.90
2022-12-08T19:08:13.091Z,12.73
2022-12-08T19:11:20.477Z,11.75
2022-12-08T19:14:27.771Z,12.10
2022-12-08T19:17:31.139Z,11.52
2022-12-08T19:20:33.523Z,10.52
2022-12-08T19:23:35.879Z,11.73
2022-12-08T19:26:38.770Z,12.40
2022-12-08T19:29:41.051Z,12.45
2022-12-08T19:32:43.357Z,12.02
2022-12-08T19:35:52.192Z,12.48
2022-12-08T19:39:14.322Z,12.67
2022-12-08T19:42:37.571Z,13.18
2022-12-08T19:45:39.969Z,12.32
2022-12-08T19:48:42.396Z,12.57
2022-12-08T19:51:44.867Z,12.15
2022-12-08T19:54:47.470Z,13.37
2022-12-08T19:57:50.968Z,13.07
2022-12-08T20:00:53.437Z,12.90
2022-12-08T20:03:55.793Z,12.30
2022-12-08T20:06:58.172Z,12.32
2022-12-08T20:10:00.726Z,13.17
2022-12-08T20:13:22.086Z,13.65
2022-12-08T20:16:24.538Z,13.80
2022-12-08T20:19:27.424Z,13.88
2022-12-08T20:22:32.120Z,12.55
2022-12-08T20:25:35.000Z,14.10
2022-12-08T20:28:37.819Z,13.90
2022-12-08T20:31:40.132Z,13.35
2022-12-08T20:34:42.437Z,13.50
2022-12-08T20:37:44.737Z,14.15
2022-12-08T20:40:47.614Z,15.03
2022-12-08T20:43:50.607Z,13.65
2022-12-08T20:46:53.320Z,14.57
2022-12-08T20:49:55.740Z,14.90
2022-12-08T20:52:58.558Z,13.98
2022-12-08T20:56:02.942Z,15.67
2022-12-08T20:59:05.885Z,14.23
2022-12-08T21:02:10.645Z,14.43
2022-12-08T21:05:13.272Z,15.63
2022-12-08T21:08:15.908Z,15.02
2022-12-08T21:11:18.667Z,14.73
2022-12-08T21:14:21.124Z,15.75
2022-12-08T21:17:23.724Z,15.38
2022-12-08T21:20:26.274Z,15.18
2022-12-08T21:23:28.946Z,15.73
2022-12-08T21:26:31.827Z,15.47
2022-12-08T21:29:34.330Z,15.80
2022-12-08T21:32:39.148Z,15.85
2022-12-08T21:35:41.591Z,16.98
2022-12-08T21:38:44.594Z,16.17
2022-12-08T21:42:05.923Z,15.90
2022-12-08T21:45:09.032Z,14.95
2022-12-08T21:48:12.197Z,16.60
2022-12-08T21:51:14.861Z,15.35
2022-12-08T21:54:19.284Z,15.77
2022-12-08T21:57:21.926Z,15.57
2022-12-08T22:00:24.770Z,15.20
2022-12-08T22:03:28.501Z,17.00
2022-12-08T22:06:31.044Z,15.02
2022-12-08T22:09:33.522Z,16.20
2022-12-08T22:12:37.168Z,15.33
2022-12-08T22:15:39.616Z,16.02
2022-12-08T22:18:42.606Z,15.20
2022-12-08T22:21:45.200Z,16.52
2022-12-08T22:24:47.887Z,16.77
2022-12-08T22:27:50.163Z,14.40
2022-12-08T22:30:52.611Z,16.38
2022-12-08T22:33:55.112Z,15.98
2022-12-08T22:36:57.633Z,15.30
2022-12-08T22:40:00.173Z,17.05
2022-12-08T22:43:02.530Z,15.97
2022-12-08T22:46:14.999Z,15.32
2022-12-08T22:49:17.297Z,15.73
2022-12-08T22:52:19.593Z,16.70
2022-12-08T22:55:21.873Z,16.55
2022-12-08T22:58:24.319Z,14.57
2022-12-08T23:01:29.594Z,16.63
2022-12-08T23:04:32.088Z,16.13
2022-12-08T23:07:34.555Z,15.63
2022-12-08T23:10:36.937Z,16.35
2022-12-08T23:13:42.263Z,16.00
2022-12-08T23:16:44.719Z,16.48
2022-12-08T23:19:47.349Z,17.00
2022-12-08T23:22:49.742Z,15.70
2022-12-08T23:25:52.283Z,16.45
2022-12-08T23:28:55.476Z,16.33
2022-12-08T23:31:58.382Z,17.00
2022-12-08T23:35:00.882Z,16.05
2022-12-08T23:38:03.335Z,16.20
2022-12-08T23:41:07.856Z,16.10
2022-12-08T23:44:12.418Z,16.33
2022-12-08T23:47:14.855Z,15.52
2022-12-08T23:50:17.295Z,16.10
2022-12-08T23:53:19.584Z,17.50
2022-12-08T23:56:24.335Z,16.35
2022-12-08T23:59:31.097Z,16.80
